Time;durP1;ratioP1;P1;durP2;ratioP2;P2;SDS_P1;SDS_P2;PMS_P1;PMS_P2;Temp;Humidity;BMP_temperature;BMP_pressure;BME280_temperature;BME280_humidity;BME280_pressure;Samples;Min_cycle;Max_cycle;Signal;HPM_P1;HPM_P2
2023/03/17 00:01:49;;;;;;;3.13;2.30;;;;;;;7.06;68.00;100737.06;5074836;28;20040;-85
2023/03/17 00:04:16;;;;;;;2.70;2.10;;;;;;;7.07;68.55;100756.00;5075146;28;20036;-85
2023/03/17 00:06:45;;;;;;;2.57;2.20;;;;;;;7.04;68.24;100756.00;5074200;28;20028;-85
2023/03/17 00:09:15;;;;;;;2.58;2.10;;;;;;;7.09;68.12;100764.63;5074864;28;20389;-85
2023/03/17 00:11:43;;;;;;;2.30;2.10;;;;;;;7.07;68.29;100769.75;5074736;28;20028;-86
2023/03/17 00:14:08;;;;;;;2.38;2.10;;;;;;;7.03;68.59;100762.91;5073460;28;20029;-86
2023/03/17 00:16:38;;;;;;;1.97;1.77;;;;;;;7.05;68.27;100765.47;5081496;22;20032;-85
2023/03/17 00:19:03;;;;;;;2.03;1.92;;;;;;;7.04;68.96;100756.00;5074681;28;20052;-85
2023/03/17 00:21:31;;;;;;;2.30;2.10;;;;;;;7.00;69.24;100739.69;5073779;28;20515;-86
2023/03/17 00:23:58;;;;;;;2.92;2.30;;;;;;;6.90;68.60;100723.34;5074262;28;20020;-86
2023/03/17 00:26:27;;;;;;;4.43;2.30;;;;;;;6.88;68.75;100727.66;5074360;28;20024;-86
2023/03/17 00:28:53;;;;;;;4.22;2.47;;;;;;;6.85;69.26;100714.78;5073198;28;20032;-85
2023/03/17 00:31:24;;;;;;;3.22;2.55;;;;;;;6.86;68.97;100718.19;5074482;28;20051;-85
2023/03/17 00:33:52;;;;;;;5.13;2.50;;;;;;;6.85;68.86;100703.59;5073143;28;20491;-86
2023/03/17 00:36:21;;;;;;;3.58;2.50;;;;;;;6.80;70.15;100707.06;5074378;28;20032;-85
2023/03/17 00:38:47;;;;;;;3.67;2.38;;;;;;;6.72;70.11;100707.91;5073719;28;20104;-85
2023/03/17 00:41:13;;;;;;;3.77;2.40;;;;;;;6.70;70.18;100718.22;5073480;28;20448;-86
2023/03/17 00:43:39;;;;;;;3.27;2.20;;;;;;;6.67;69.68;100714.78;5074027;28;20089;-86
2023/03/17 00:46:23;;;;;;;2.58;2.25;;;;;;;6.65;69.70;100719.97;5073550;28;20024;-85
2023/03/17 00:48:49;;;;;;;3.13;2.30;;;;;;;6.58;70.40;100708.78;5073236;28;20112;-85
2023/03/17 00:51:15;;;;;;;2.70;2.20;;;;;;;6.60;69.86;100711.34;5074177;28;20508;-85
2023/03/17 00:53:41;;;;;;;2.85;2.20;;;;;;;6.57;69.50;100704.50;5073788;28;20031;-85
2023/03/17 01:02:56;;;;;;;2.90;2.00;;;;;;;6.53;70.04;100702.75;5073265;28;20457;-85
2023/03/17 01:05:23;;;;;;;3.00;2.35;;;;;;;6.57;69.61;100707.06;5073882;28;20380;-85
2023/03/17 01:18:44;;;;;;;4.47;2.70;;;;;;;6.69;69.24;100701.06;5087131;27;20055;-86
2023/03/17 01:21:10;;;;;;;5.03;2.95;;;;;;;6.72;69.26;100697.59;5071436;28;20132;-86
2023/03/17 01:23:36;;;;;;;3.53;2.70;;;;;;;6.61;69.44;100689.88;5072904;28;20119;-85
2023/03/17 01:26:01;;;;;;;6.00;3.10;;;;;;;6.71;68.95;100698.47;5073350;28;20035;-86
2023/03/17 01:28:27;;;;;;;4.97;2.70;;;;;;;6.67;69.33;100687.28;5073903;28;20377;-85
2023/03/17 01:30:52;;;;;;;4.40;2.73;;;;;;;6.60;69.58;100683.00;5072727;28;20108;-85
2023/03/17 01:33:17;;;;;;;4.80;2.70;;;;;;;6.59;69.60;100681.25;5074151;28;20031;-85
2023/03/17 01:35:44;;;;;;;4.25;2.53;;;;;;;6.54;69.58;100681.28;5073448;28;20155;-86
2023/03/17 01:38:10;;;;;;;3.90;2.60;;;;;;;6.57;70.04;100690.75;5072397;28;20154;-86
2023/03/17 01:40:41;;;;;;;4.28;2.53;;;;;;;6.49;69.79;100677.88;5054385;28;20020;-85
2023/03/17 01:43:09;;;;;;;4.95;2.63;;;;;;;6.57;69.62;100675.28;5052658;28;20025;-85
2023/03/17 01:46:12;;;;;;;3.72;2.50;;;;;;;6.52;70.11;100683.03;5052088;28;20033;-85
2023/03/17 01:48:57;;;;;;;3.33;2.58;;;;;;;6.48;70.03;100674.41;5053126;28;20028;-85
2023/03/17 01:51:45;;;;;;;3.05;2.40;;;;;;;6.44;70.13;100671.84;5052243;28;20564;-85
2023/03/17 01:54:16;;;;;;;3.53;2.28;;;;;;;6.44;70.11;100684.72;5053018;28;20057;-86
2023/03/17 01:56:47;;;;;;;3.33;2.20;;;;;;;6.42;69.91;100674.44;5052615;28;20021;-85
2023/03/17 01:59:20;;;;;;;2.40;2.20;;;;;;;6.34;70.53;100666.69;5052410;28;20017;-85
2023/03/17 02:01:49;;;;;;;2.15;1.95;;;;;;;6.24;71.18;100667.56;5052744;28;20449;-85
2023/03/17 02:04:16;;;;;;;2.20;2.00;;;;;;;6.17;71.58;100661.53;5052637;28;20508;-85
2023/03/17 02:06:43;;;;;;;2.67;2.10;;;;;;;6.09;72.02;100657.25;5051990;28;20029;-85
2023/03/17 02:09:09;;;;;;;2.65;1.98;;;;;;;6.00;71.90;100663.28;5052630;28;20074;-85
2023/03/17 02:11:35;;;;;;;4.20;2.05;;;;;;;5.89;73.48;100647.75;5053013;28;20025;-85
2023/03/17 02:14:00;;;;;;;1.90;1.80;;;;;;;5.86;72.13;100647.75;5051710;28;20033;-85
2023/03/17 02:16:28;;;;;;;1.88;1.77;;;;;;;5.81;72.11;100641.75;5052687;28;20473;-86
2023/03/17 02:18:53;;;;;;;1.98;1.77;;;;;;;5.82;71.73;100646.91;5052516;28;20029;-85
2023/03/17 02:21:34;;;;;;;2.33;1.90;;;;;;;5.79;71.98;100644.34;5071084;28;20559;-86
2023/03/17 02:24:04;;;;;;;2.10;1.90;;;;;;;5.75;72.24;100652.91;5072242;28;20480;-85
2023/03/17 02:26:33;;;;;;;1.60;1.50;;;;;;;5.75;72.16;100654.59;5072011;28;20103;-85
2023/03/17 02:29:02;;;;;;;2.53;1.80;;;;;;;5.72;73.25;100643.47;5072315;28;20389;-85
2023/03/17 02:31:29;;;;;;;2.60;1.90;;;;;;;5.72;72.22;100638.31;5072827;28;20039;-85
2023/03/17 02:33:55;;;;;;;2.05;1.80;;;;;;;5.74;72.81;100634.88;5071005;28;20179;-85
2023/03/17 02:36:20;;;;;;;2.17;1.87;;;;;;;5.74;73.17;100625.44;5072894;28;20029;-85
2023/03/17 02:38:46;;;;;;;1.80;1.70;;;;;;;5.77;71.96;100633.16;5071983;28;20519;-85
2023/03/17 02:41:14;;;;;;;2.42;1.90;;;;;;;5.75;72.04;100628.84;5071301;28;20056;-85
2023/03/17 02:43:40;;;;;;;1.90;1.77;;;;;;;5.73;71.94;100610.84;5072512;28;20028;-85
2023/03/17 02:46:06;;;;;;;3.13;2.20;;;;;;;5.75;72.71;100618.53;5072287;28;20495;-85
2023/03/17 02:48:33;;;;;;;2.30;2.00;;;;;;;5.78;72.22;100619.44;5071388;28;20031;-85
2023/03/17 02:50:59;;;;;;;2.53;2.08;;;;;;;5.76;73.37;100630.56;5072240;28;20115;-85
2023/03/17 02:53:24;;;;;;;4.70;2.30;;;;;;;5.80;72.81;100624.56;5072570;28;20107;-85
2023/03/17 02:55:49;;;;;;;3.33;2.38;;;;;;;5.76;73.88;100615.13;5071019;28;20065;-85
2023/03/17 02:58:15;;;;;;;2.70;2.13;;;;;;;5.74;73.10;100616.88;5071686;28;20017;-85
2023/03/17 03:00:40;;;;;;;2.63;2.10;;;;;;;5.75;72.37;100615.97;5072556;28;20024;-85
2023/03/17 03:03:06;;;;;;;3.47;2.20;;;;;;;5.76;73.02;100617.69;5071310;28;20522;-85
2023/03/17 03:05:31;;;;;;;2.37;2.10;;;;;;;5.75;73.16;100618.53;5072358;28;20020;-85
2023/03/17 03:07:57;;;;;;;2.53;2.20;;;;;;;5.75;72.30;100624.56;5072240;28;20082;-85
2023/03/17 03:10:22;;;;;;;2.65;2.10;;;;;;;5.70;72.18;100619.41;5074976;28;20530;-85
2023/03/17 03:12:47;;;;;;;3.27;2.30;;;;;;;5.85;71.95;100631.44;5075459;28;20021;-85
2023/03/17 03:15:13;;;;;;;3.13;2.30;;;;;;;5.79;72.46;100628.00;5075551;28;20415;-85
2023/03/17 03:17:38;;;;;;;2.38;1.98;;;;;;;5.79;73.05;100616.00;5074994;28;20071;-85
2023/03/17 03:20:05;;;;;;;2.83;2.13;;;;;;;5.79;72.95;100622.84;5075107;28;20049;-85
2023/03/17 03:22:30;;;;;;;2.22;1.90;;;;;;;5.77;73.31;100611.69;5075669;28;20032;-85
2023/03/17 03:24:55;;;;;;;2.15;1.80;;;;;;;5.74;73.40;100619.44;5074514;28;20020;-85
2023/03/17 03:27:20;;;;;;;3.00;1.80;;;;;;;5.73;73.33;100626.28;5075853;28;20031;-85
2023/03/17 03:29:46;;;;;;;1.80;1.70;;;;;;;5.69;73.37;100630.56;5074607;28;20455;-85
2023/03/17 03:32:12;;;;;;;3.00;1.90;;;;;;;5.73;72.50;100623.72;5075161;28;20024;-85
2023/03/17 03:34:37;;;;;;;3.15;2.38;;;;;;;5.79;72.40;100625.44;5074924;28;20353;-85
2023/03/17 03:37:02;;;;;;;2.65;2.13;;;;;;;5.75;73.38;100618.53;5074441;28;20130;-85
2023/03/17 03:39:27;;;;;;;3.38;2.40;;;;;;;5.79;73.08;100626.31;5066346;28;20029;-85
2023/03/17 03:41:56;;;;;;;2.53;2.30;;;;;;;5.74;72.74;100622.00;5054148;28;20036;-85
2023/03/17 03:44:21;;;;;;;3.63;2.03;;;;;;;5.75;72.56;100639.16;5062424;22;20029;-85
2023/03/17 03:46:47;;;;;;;2.57;2.00;;;;;;;5.69;73.05;100620.28;5075035;28;20036;-85
2023/03/17 03:49:12;;;;;;;2.13;1.90;;;;;;;5.74;73.32;100637.47;5075274;28;20013;-85
2023/03/17 03:51:37;;;;;;;2.25;1.80;;;;;;;5.72;72.88;100645.16;5074509;28;20439;-85
2023/03/17 03:54:02;;;;;;;1.80;1.70;;;;;;;5.70;73.08;100650.31;5075079;28;20426;-85
2023/03/17 03:56:28;;;;;;;2.67;2.10;;;;;;;5.75;73.38;100639.16;5075364;28;20031;-85
2023/03/17 03:58:53;;;;;;;2.27;1.90;;;;;;;5.73;72.66;100644.31;5074098;28;20468;-85
2023/03/17 04:01:18;;;;;;;3.17;1.83;;;;;;;5.75;72.34;100657.19;5074990;28;20104;-85
2023/03/17 04:03:46;;;;;;;2.50;2.00;;;;;;;5.72;72.51;100653.75;5075215;28;20376;-85
2023/03/17 04:06:11;;;;;;;2.33;1.80;;;;;;;5.76;72.48;100661.47;5074061;28;20495;-85
2023/03/17 04:08:36;;;;;;;3.27;1.87;;;;;;;5.75;72.72;100659.75;5075056;28;20033;-85
2023/03/17 04:11:02;;;;;;;2.42;1.80;;;;;;;5.72;72.41;100651.19;5074639;28;20078;-85
2023/03/17 04:13:27;;;;;;;2.17;1.98;;;;;;;5.70;73.00;100652.91;5073876;28;20029;-86
2023/03/17 04:15:52;;;;;;;2.00;1.70;;;;;;;5.68;73.03;100659.75;5074542;28;20036;-85
2023/03/17 04:18:18;;;;;;;2.45;1.95;;;;;;;5.68;72.63;100649.47;5074472;28;20384;-86
2023/03/17 04:20:43;;;;;;;2.05;1.90;;;;;;;5.68;72.68;100652.03;5073262;28;20016;-85
2023/03/17 04:23:08;;;;;;;2.75;1.85;;;;;;;5.62;73.00;100646.00;5074476;28;20503;-85
2023/03/17 04:25:34;;;;;;;1.75;1.63;;;;;;;5.60;73.00;100648.59;5074515;28;20024;-85
2023/03/17 04:27:59;;;;;;;2.80;2.00;;;;;;;5.64;72.85;100649.44;5073299;28;20107;-85
2023/03/17 04:30:25;;;;;;;3.17;2.00;;;;;;;5.70;72.41;100658.03;5074218;28;20103;-85
2023/03/17 04:32:50;;;;;;;1.97;1.83;;;;;;;5.64;73.15;100657.16;5073659;28;20028;-85
2023/03/17 04:35:18;;;;;;;2.47;1.88;;;;;;;5.66;72.81;100652.88;5073618;28;20020;-85
2023/03/17 04:37:44;;;;;;;1.75;1.60;;;;;;;5.65;72.87;100661.47;5074340;28;20384;-85
2023/03/17 04:40:12;;;;;;;2.13;1.90;;;;;;;5.65;73.78;100656.31;5072936;28;20024;-85
2023/03/17 04:42:37;;;;;;;2.05;1.85;;;;;;;5.60;73.10;100645.13;5073588;28;20036;-85
2023/03/17 04:45:08;;;;;;;2.73;2.10;;;;;;;5.67;72.80;100663.19;5073722;28;20052;-85
2023/03/17 04:47:34;;;;;;;2.92;2.30;;;;;;;5.64;72.79;100658.03;5072022;28;20029;-85
2023/03/17 04:50:00;;;;;;;2.50;2.03;;;;;;;5.63;74.00;100661.44;5073763;28;20035;-85
2023/03/17 04:52:26;;;;;;;3.72;2.00;;;;;;;5.64;72.62;100654.59;5073801;28;20028;-85
2023/03/17 04:54:51;;;;;;;3.58;2.47;;;;;;;5.62;73.25;100652.03;5071983;28;20063;-85
2023/03/17 04:57:16;;;;;;;2.20;1.95;;;;;;;5.63;73.27;100645.16;5073733;28;20031;-85
2023/03/17 04:59:41;;;;;;;2.97;2.00;;;;;;;5.60;72.88;100643.44;5073541;28;20025;-85
2023/03/17 05:02:07;;;;;;;2.17;1.98;;;;;;;5.61;73.23;100641.72;5072486;28;20131;-85
2023/03/17 05:04:32;;;;;;;1.98;1.77;;;;;;;5.63;72.94;100643.41;5073803;28;20482;-86
2023/03/17 05:06:58;;;;;;;2.35;1.95;;;;;;;5.64;73.50;100642.56;5073453;28;20016;-85
2023/03/17 05:09:25;;;;;;;2.45;2.00;;;;;;;5.64;73.03;100636.56;5072405;28;20081;-86
2023/03/17 05:11:51;;;;;;;2.00;1.80;;;;;;;5.63;72.91;100624.56;5072716;28;20476;-85
2023/03/17 05:14:16;;;;;;;2.87;2.10;;;;;;;5.66;73.88;100622.84;5073175;28;20036;-85
2023/03/17 05:16:41;;;;;;;2.10;1.90;;;;;;;5.62;73.44;100621.13;5073036;28;20024;-85
2023/03/17 05:19:07;;;;;;;4.38;2.30;;;;;;;5.70;73.13;100634.00;5073507;28;20031;-85
2023/03/17 05:21:32;;;;;;;2.80;2.20;;;;;;;5.68;73.06;100628.84;5073701;28;20052;-86
2023/03/17 05:23:58;;;;;;;3.17;2.10;;;;;;;5.66;74.16;100633.13;5072598;28;20469;-85
2023/03/17 05:26:23;;;;;;;2.65;2.00;;;;;;;5.63;73.58;100625.41;5073287;28;20082;-85
2023/03/17 05:28:48;;;;;;;3.00;2.20;;;;;;;5.70;73.92;100632.28;5072782;28;20032;-84
2023/03/17 05:31:14;;;;;;;4.00;2.35;;;;;;;5.71;73.18;100644.31;5072843;28;20016;-85
2023/03/17 05:33:39;;;;;;;2.25;2.00;;;;;;;5.72;73.50;100640.88;5073300;28;20032;-85
2023/03/17 05:36:05;;;;;;;2.50;1.95;;;;;;;5.71;73.45;100643.44;5072629;28;20032;-85
2023/03/17 05:38:31;;;;;;;3.78;2.17;;;;;;;5.73;73.41;100646.88;5072090;28;20108;-85
2023/03/17 05:40:56;;;;;;;2.78;2.30;;;;;;;5.73;73.50;100652.03;5072145;28;20166;-85
2023/03/17 05:43:22;;;;;;;3.38;2.42;;;;;;;5.70;73.03;100645.16;5072449;28;20028;-85
2023/03/17 05:45:49;;;;;;;3.47;2.20;;;;;;;5.72;73.31;100645.16;5072594;28;20462;-85
2023/03/17 05:48:15;;;;;;;2.78;2.30;;;;;;;5.74;73.39;100643.47;5072847;28;20396;-86
2023/03/17 05:50:42;;;;;;;3.53;2.10;;;;;;;5.71;74.43;100643.44;5072439;28;20024;-85
2023/03/17 05:53:08;;;;;;;2.97;2.20;;;;;;;5.68;73.72;100646.03;5072486;28;20096;-85
2023/03/17 05:55:33;;;;;;;2.45;2.00;;;;;;;5.59;74.01;100628.84;5072818;28;20064;-85
2023/03/17 05:57:59;;;;;;;2.40;1.93;;;;;;;5.63;74.05;100638.28;5071766;28;20074;-85
2023/03/17 06:00:25;;;;;;;2.80;2.00;;;;;;;5.67;73.37;100644.31;5073263;28;20083;-85
2023/03/17 06:02:51;;;;;;;3.10;2.10;;;;;;;5.65;73.78;100639.13;5072734;28;20476;-86
2023/03/17 06:05:16;;;;;;;2.30;2.10;;;;;;;5.62;74.28;100634.00;5071590;28;20060;-85
2023/03/17 06:07:41;;;;;;;2.65;2.05;;;;;;;5.60;73.95;100638.28;5072956;28;20025;-85
2023/03/17 06:10:07;;;;;;;3.00;2.08;;;;;;;5.56;73.94;100634.84;5072641;28;20027;-85
2023/03/17 06:12:33;;;;;;;2.23;2.00;;;;;;;5.55;74.08;100643.44;5071047;28;20477;-85
2023/03/17 06:14:58;;;;;;;2.65;2.05;;;;;;;5.49;74.01;100638.25;5072666;28;20025;-86
2023/03/17 06:17:24;;;;;;;3.20;2.03;;;;;;;5.51;74.19;100636.53;5072957;28;20021;-85
2023/03/17 06:19:50;;;;;;;2.20;2.00;;;;;;;5.51;74.27;100646.00;5071777;28;20513;-85
2023/03/17 06:22:15;;;;;;;2.00;1.80;;;;;;;5.51;75.31;100640.84;5072771;28;20103;-85
2023/03/17 06:24:44;;;;;;;2.88;2.03;;;;;;;5.54;74.07;100649.44;5072838;28;20039;-85
2023/03/17 06:27:09;;;;;;;4.03;2.30;;;;;;;5.61;73.75;100645.16;5071596;28;20024;-86
2023/03/17 06:29:36;;;;;;;5.97;2.67;;;;;;;5.64;74.60;100646.88;5072825;28;20031;-85
2023/03/17 06:32:02;;;;;;;;;;;;;;;5.68;75.05;100646.03;5072717;28;20135;-85
2023/03/17 06:34:28;;;;;;;4.28;2.60;;;;;;;5.71;74.37;100646.91;5072077;28;20003;-85
2023/03/17 06:36:54;;;;;;;4.07;2.57;;;;;;;5.77;74.16;100650.31;5072158;28;20025;-85
2023/03/17 06:39:20;;;;;;;4.18;2.53;;;;;;;5.80;73.76;100651.19;5072242;28;20491;-85
2023/03/17 06:41:46;;;;;;;3.07;2.37;;;;;;;5.81;74.01;100647.75;5071248;28;20033;-85
2023/03/17 06:44:11;;;;;;;4.95;2.50;;;;;;;5.91;73.65;100651.19;5072781;28;20082;-85
2023/03/17 06:46:37;;;;;;;3.30;2.47;;;;;;;5.95;73.79;100641.75;5075279;28;20049;-85
2023/03/17 06:49:02;;;;;;;3.83;2.60;;;;;;;6.05;73.78;100647.81;5076316;28;20044;-86
2023/03/17 06:51:28;;;;;;;5.00;2.50;;;;;;;6.05;73.93;100650.38;5076002;28;20372;-86
2023/03/17 06:53:54;;;;;;;4.33;2.70;;;;;;;6.13;74.05;100654.69;5075315;28;20043;-86
2023/03/17 06:56:20;;;;;;;3.85;2.33;;;;;;;6.20;73.59;100642.63;5076306;28;20275;-86
2023/03/17 06:58:45;;;;;;;4.60;2.50;;;;;;;6.30;74.07;100639.22;5076479;28;20091;-86
2023/03/17 07:01:11;;;;;;;4.55;2.60;;;;;;;6.47;73.32;100646.06;5075793;28;20021;-86
2023/03/17 07:03:36;;;;;;;3.83;2.42;;;;;;;6.65;72.86;100646.00;5076051;28;20077;-86
2023/03/17 07:06:02;;;;;;;4.23;2.60;;;;;;;6.84;73.25;100650.28;5075966;28;20052;-86
2023/03/17 07:08:29;;;;;;;3.50;2.50;;;;;;;6.90;73.12;100655.44;5075625;28;20503;-86
2023/03/17 07:10:56;;;;;;;4.32;2.70;;;;;;;6.93;72.29;100639.91;5074897;28;20096;-85
2023/03/17 07:13:22;;;;;;;7.50;2.75;;;;;;;7.02;72.00;100646.78;5075998;28;20452;-86
2023/03/17 07:15:47;;;;;;;4.18;2.40;;;;;;;7.06;72.36;100651.06;5074592;28;20108;-85
2023/03/17 07:18:19;;;;;;;6.40;2.95;;;;;;;7.09;72.01;100644.16;5075741;28;20408;-86
2023/03/17 07:20:45;;;;;;;5.28;3.08;;;;;;;7.12;71.97;100640.72;5075907;28;20107;-85
2023/03/17 07:23:21;;;;;;;5.60;2.80;;;;;;;7.15;72.22;100648.44;5074875;28;20024;-86
2023/03/17 07:26:02;;;;;;;4.47;2.80;;;;;;;7.15;72.09;100639.88;5075653;28;20055;-85
2023/03/17 07:28:28;;;;;;;5.50;2.90;;;;;;;7.18;73.11;100639.81;5075836;28;20298;-88
2023/03/17 07:31:01;;;;;;;4.83;2.63;;;;;;;7.18;73.23;100629.50;5074606;28;20110;-85
2023/03/17 07:33:27;;;;;;;7.15;2.65;;;;;;;7.26;72.19;100627.75;5075554;28;20039;-85
2023/03/17 07:35:52;;;;;;;5.67;3.00;;;;;;;7.40;71.94;100635.44;5074663;28;20028;-86
2023/03/17 07:38:19;;;;;;;8.93;3.03;;;;;;;7.43;72.85;100635.38;5075628;28;20027;-85
2023/03/17 07:40:46;;;;;;;6.07;3.10;;;;;;;7.48;72.67;100632.81;5075187;28;20078;-86
2023/03/17 07:43:13;;;;;;;6.95;3.17;;;;;;;7.53;72.02;100631.91;5074711;28;20036;-85
2023/03/17 07:45:38;;;;;;;6.15;2.65;;;;;;;7.58;72.01;100624.97;5075245;28;20052;-85
2023/03/17 07:48:05;;;;;;;8.27;3.27;;;;;;;7.68;71.73;100625.78;5074707;28;20028;-85
2023/03/17 07:50:36;;;;;;;6.47;2.97;;;;;;;7.69;71.92;100626.63;5074440;28;20439;-85
2023/03/17 07:53:02;;;;;;;6.72;3.15;;;;;;;7.83;71.81;100634.28;5074782;28;20040;-85
2023/03/17 07:55:29;;;;;;;5.50;2.80;;;;;;;7.81;72.37;100634.28;5073997;28;20031;-85
2023/03/17 07:57:54;;;;;;;6.38;3.00;;;;;;;7.88;71.99;100635.09;5073651;28;20032;-85
2023/03/17 08:00:20;;;;;;;5.85;3.03;;;;;;;7.97;71.28;100629.88;5075137;28;20477;-85
2023/03/17 08:02:46;;;;;;;7.30;3.10;;;;;;;8.03;71.13;100647.06;5074629;28;20028;-85
2023/03/17 08:05:14;;;;;;;6.73;3.13;;;;;;;8.10;71.23;100659.06;5073981;28;20039;-85
2023/03/17 08:07:39;;;;;;;5.57;2.97;;;;;;;8.17;71.23;100650.38;5074922;28;20021;-86
2023/03/17 08:10:06;;;;;;;5.87;3.00;;;;;;;8.26;71.62;100651.16;5074475;28;20038;-85
2023/03/17 08:12:31;;;;;;;;;;;;;;;8.34;72.01;100650.25;5074452;28;20083;-85
2023/03/17 08:14:57;;;;;;;5.60;2.80;;;;;;;8.42;71.47;100645.00;5074558;28;19916;-85
2023/03/17 08:17:26;;;;;;;3.80;2.50;;;;;;;8.47;71.29;100635.47;5074895;28;20469;-85
2023/03/17 08:19:57;;;;;;;6.90;2.65;;;;;;;8.57;71.16;100651.78;5073665;28;20043;-85
2023/03/17 08:22:23;;;;;;;5.40;2.53;;;;;;;8.65;71.36;100649.97;5074080;28;20036;-85
2023/03/17 08:24:49;;;;;;;5.40;2.40;;;;;;;8.74;71.04;100651.59;5074536;28;20032;-85
2023/03/17 08:27:15;;;;;;;2.95;2.40;;;;;;;8.84;71.46;100657.50;5072857;28;20086;-88
2023/03/17 08:29:41;;;;;;;4.25;2.60;;;;;;;8.93;70.69;100646.22;5075508;28;20043;-88
2023/03/17 08:32:07;;;;;;;6.07;2.90;;;;;;;9.06;70.04;100641.75;5074523;28;20028;-87
2023/03/17 08:34:33;;;;;;;4.57;2.60;;;;;;;9.19;69.86;100632.09;5074844;28;20025;-91
2023/03/17 08:36:59;;;;;;;6.45;3.20;;;;;;;9.32;69.59;100637.97;5074922;28;20021;-88
2023/03/17 08:39:25;;;;;;;8.05;3.15;;;;;;;9.36;68.23;100627.53;5074047;28;20136;-87
2023/03/17 08:41:50;;;;;;;7.50;3.20;;;;;;;9.51;68.76;100635.97;5074155;28;20068;-87
2023/03/17 08:44:16;;;;;;;5.93;3.13;;;;;;;9.60;68.63;100628.06;5074732;28;20021;-88
2023/03/17 08:46:41;;;;;;;8.37;3.37;;;;;;;9.65;69.21;100610.75;5074193;28;20036;-88
2023/03/17 08:49:08;;;;;;;6.70;3.17;;;;;;;9.73;68.24;100614.06;5074342;28;20027;-87
2023/03/17 08:51:36;;;;;;;5.72;2.80;;;;;;;9.83;67.99;100621.69;5074486;28;20108;-87
2023/03/17 08:54:03;;;;;;;8.68;3.55;;;;;;;9.96;67.36;100632.72;5073705;28;20149;-87
2023/03/17 08:56:28;;;;;;;7.40;3.13;;;;;;;9.98;67.30;100634.41;5074649;28;20024;-89
2023/03/17 08:58:54;;;;;;;5.87;2.87;;;;;;;10.10;67.87;100645.47;5074473;28;20031;-88
2023/03/17 09:01:23;;;;;;;9.37;3.07;;;;;;;10.24;67.03;100642.63;5071906;28;20031;-88
2023/03/17 09:03:50;;;;;;;6.05;2.90;;;;;;;10.31;67.45;100636.44;5068741;28;20077;-88
2023/03/17 09:06:16;;;;;;;7.50;3.35;;;;;;;10.55;65.11;100632.59;5074120;28;20040;-89
2023/03/17 09:08:46;;;;;;;6.78;3.30;;;;;;;10.55;65.40;100630.00;5064824;28;20531;-89
2023/03/17 09:11:16;;;;;;;6.85;3.00;;;;;;;10.65;65.50;100631.53;5073497;28;20392;-87
2023/03/17 09:13:42;;;;;;;6.13;3.00;;;;;;;10.74;66.02;100630.53;5073717;28;20484;-89
2023/03/17 09:16:08;;;;;;;5.37;3.00;;;;;;;10.90;64.83;100631.06;5073372;28;20082;-89
2023/03/17 09:18:36;;;;;;;6.82;3.40;;;;;;;10.92;64.57;100631.03;5074921;28;20363;-88
2023/03/17 09:21:02;;;;;;;8.65;3.22;;;;;;;10.92;64.68;100616.28;5073429;28;20457;-86
2023/03/17 09:23:27;;;;;;;5.30;3.00;;;;;;;11.03;64.01;100615.25;5072651;28;20112;-86
2023/03/17 09:25:56;;;;;;;5.50;3.00;;;;;;;11.01;65.02;100617.00;5072720;28;20016;-84
2023/03/17 09:28:36;;;;;;;6.07;2.80;;;;;;;11.06;65.36;100622.94;5051483;28;20036;-85
2023/03/17 09:31:14;;;;;;;6.10;2.88;;;;;;;11.19;64.86;100632.19;5052810;28;20028;-85
2023/03/17 09:33:42;;;;;;;7.80;3.17;;;;;;;11.34;63.55;100637.97;5053240;28;20029;-85
2023/03/17 09:36:09;;;;;;;8.10;3.35;;;;;;;11.43;62.80;100629.97;5051846;28;20083;-85
2023/03/17 09:38:36;;;;;;;6.40;3.15;;;;;;;11.48;63.56;100624.66;5053175;28;20354;-84
2023/03/17 09:41:19;;;;;;;8.30;3.35;;;;;;;11.55;64.04;100624.47;5053686;28;20055;-84
2023/03/17 09:44:03;;;;;;;6.88;3.30;;;;;;;11.63;63.25;100616.50;5071222;28;20024;-85
2023/03/17 09:46:44;;;;;;;5.68;2.72;;;;;;;11.68;64.16;100613.81;5073014;28;20393;-85
2023/03/17 09:49:13;;;;;;;6.68;2.95;;;;;;;11.72;64.36;100615.41;5072328;28;20028;-85
2023/03/17 09:51:39;;;;;;;6.18;3.00;;;;;;;11.79;63.69;100617.00;5072459;28;20024;-85
2023/03/17 09:54:14;;;;;;;5.77;3.00;;;;;;;11.76;63.95;100619.66;5072639;28;20035;-85
2023/03/17 09:56:44;;;;;;;5.38;3.00;;;;;;;11.77;63.49;100617.91;5072267;28;20020;-84
2023/03/17 09:59:39;;;;;;;4.88;3.20;;;;;;;11.80;63.18;100616.13;5072467;28;20043;-87
2023/03/17 10:02:28;;;;;;;4.57;2.60;;;;;;;11.85;63.48;100629.00;5062401;28;20025;-82
2023/03/17 10:04:55;;;;;;;5.90;3.00;;;;;;;11.95;62.77;100637.41;5070857;28;20469;-83
2023/03/17 10:07:40;;;;;;;8.07;3.08;;;;;;;11.86;62.98;100634.16;5072645;28;20032;-83
2023/03/17 10:10:15;;;;;;;6.28;2.90;;;;;;;11.88;62.91;100645.38;5071896;28;20036;-83
2023/03/17 10:12:47;;;;;;;4.15;2.65;;;;;;;11.84;63.93;100642.91;5071535;28;20032;-83
2023/03/17 10:15:47;;;;;;;3.50;2.40;;;;;;;11.85;64.26;100636.81;5072884;28;20082;-83
2023/03/17 10:18:16;;;;;;;3.25;2.13;;;;;;;11.86;64.75;100644.56;5026193;28;20102;-83
2023/03/17 10:20:53;;;;;;;2.15;1.88;;;;;;;11.85;64.91;100658.44;5072780;28;20419;-83
2023/03/17 10:23:23;;;;;;;2.90;1.88;;;;;;;11.88;65.10;100670.50;5072787;28;20047;-83
2023/03/17 10:25:48;;;;;;;2.10;1.90;;;;;;;11.88;65.44;100662.72;5071417;28;20032;-83
2023/03/17 10:28:28;;;;;;;2.73;1.90;;;;;;;11.93;65.47;100665.22;5072295;28;20029;-83
2023/03/17 10:31:00;;;;;;;1.35;1.25;;;;;;;11.99;66.06;100678.09;5072125;28;20021;-83
2023/03/17 10:33:25;;;;;;;1.83;1.60;;;;;;;12.11;66.06;100683.03;5071911;28;20037;-83
2023/03/17 10:35:50;;;;;;;1.40;1.20;;;;;;;12.20;65.76;100664.56;5071939;28;20384;-83
2023/03/17 10:38:19;;;;;;;1.20;1.20;;;;;;;12.31;65.51;100666.94;5072280;28;20103;-84
2023/03/17 10:40:53;;;;;;;1.25;1.15;;;;;;;12.49;65.39;100667.34;5071394;28;20020;-83
2023/03/17 10:43:20;;;;;;;0.98;0.98;;;;;;;12.60;65.10;100660.09;5072250;28;20460;-82
2023/03/17 10:45:56;;;;;;;1.77;1.35;;;;;;;12.74;65.12;100659.72;5071025;28;20056;-82
2023/03/17 10:48:22;;;;;;;1.60;1.50;;;;;;;12.86;62.81;100658.53;5072420;28;20099;-83
2023/03/17 10:50:47;;;;;;;1.53;1.43;;;;;;;13.05;62.80;100658.88;5071986;28;20480;-83
2023/03/17 10:53:27;;;;;;;4.23;2.20;;;;;;;13.27;61.86;100650.44;5071429;28;20029;-83
2023/03/17 10:55:56;;;;;;;4.80;2.47;;;;;;;13.48;61.32;100661.97;5071898;28;20028;-83
2023/03/17 10:58:45;;;;;;;5.15;2.45;;;;;;;13.68;61.14;100653.56;5072208;28;20469;-83
2023/03/17 11:01:28;;;;;;;4.30;2.60;;;;;;;13.85;61.39;100652.16;5071671;28;20032;-83
2023/03/17 11:03:54;;;;;;;3.00;2.35;;;;;;;13.97;61.16;100649.16;5071970;28;20137;-83
2023/03/17 11:06:32;;;;;;;2.92;2.40;;;;;;;14.07;61.34;100647.09;5072255;28;20154;-83
2023/03/17 11:09:08;;;;;;;2.70;2.20;;;;;;;14.16;60.71;100640.72;5071355;28;20021;-83
2023/03/17 11:11:42;;;;;;;2.95;1.98;;;;;;;14.26;59.90;100642.13;5072246;28;20476;-83
2023/03/17 11:14:14;;;;;;;2.10;1.70;;;;;;;14.39;61.05;100641.72;5071302;28;20059;-83
2023/03/17 11:16:52;;;;;;;3.17;2.10;;;;;;;14.60;59.35;100637.47;5072156;28;20025;-84
2023/03/17 11:19:17;;;;;;;2.70;2.05;;;;;;;14.78;58.72;100630.78;5072311;28;20016;-83
2023/03/17 11:21:58;;;;;;;2.10;1.90;;;;;;;14.91;58.44;100621.59;5071426;28;20047;-83
2023/03/17 11:24:32;;;;;;;3.38;2.30;;;;;;;15.09;58.52;100619.19;5072205;28;20476;-83
2023/03/17 11:27:29;;;;;;;3.53;2.30;;;;;;;15.20;56.83;100624.03;5071613;28;20045;-83
2023/03/17 11:30:17;;;;;;;4.65;2.60;;;;;;;15.26;56.40;100615.91;5072622;28;20036;-83
2023/03/17 11:32:51;;;;;;;3.47;2.38;;;;;;;15.32;54.06;100620.06;5064327;28;20477;-83
2023/03/17 11:35:42;;;;;;;2.90;2.20;;;;;;;15.41;57.12;100630.19;5074779;28;20035;-83
2023/03/17 11:38:21;;;;;;;2.70;2.20;;;;;;;15.50;57.17;100621.97;5075371;28;20021;-83
2023/03/17 11:41:08;;;;;;;2.72;2.00;;;;;;;15.67;57.42;100623.94;5075182;28;20020;-83
2023/03/17 11:44:00;;;;;;;1.85;1.75;;;;;;;15.83;55.23;100628.50;5074610;28;20020;-83
2023/03/17 11:46:31;;;;;;;2.78;2.05;;;;;;;15.86;55.36;100631.91;5075233;28;20052;-83
2023/03/17 11:49:10;;;;;;;2.38;2.00;;;;;;;16.05;57.52;100631.16;5074463;28;20075;-82
2023/03/17 11:51:55;;;;;;;2.08;1.70;;;;;;;16.16;57.38;100623.69;5075303;28;20067;-83
2023/03/17 11:55:10;;;;;;;2.25;1.90;;;;;;;16.31;57.76;100618.72;5075029;28;20028;-83
2023/03/17 11:57:49;;;;;;;2.53;2.10;;;;;;;16.35;54.26;100610.69;4993091;28;20030;-83